createdAt,value
2023-09-27T00:00:16.866Z,14.36
2023-09-27T00:01:17.790Z,14.31
2023-09-27T00:02:18.769Z,14.31
2023-09-27T00:03:19.734Z,14.24
2023-09-27T00:04:20.260Z,14.19
2023-09-27T00:05:21.189Z,14.16
2023-09-27T00:06:21.785Z,14.13
2023-09-27T00:07:22.754Z,14.09
2023-09-27T00:08:23.226Z,14.09
2023-09-27T00:09:24.140Z,14.09
2023-09-27T00:10:24.999Z,14.19
2023-09-27T00:11:25.921Z,14.21
2023-09-27T00:12:26.773Z,14.20
2023-09-27T00:13:27.668Z,14.24
2023-09-27T00:14:28.571Z,14.29
2023-09-27T00:15:29.476Z,14.27
2023-09-27T00:16:30.396Z,14.20
2023-09-27T00:17:31.389Z,14.17
2023-09-27T00:18:32.296Z,14.16
2023-09-27T00:19:33.163Z,14.20
2023-09-27T00:20:34.016Z,14.17
2023-09-27T00:21:34.892Z,14.13
2023-09-27T00:22:35.747Z,14.12
2023-09-27T00:23:36.648Z,14.06
2023-09-27T00:24:37.504Z,14.05
2023-09-27T00:25:38.372Z,14.01
2023-09-27T00:26:39.256Z,13.99
2023-09-27T00:27:40.133Z,13.94
2023-09-27T00:28:41.074Z,13.99
2023-09-27T00:29:41.962Z,13.99
2023-09-27T00:30:42.825Z,14.04
2023-09-27T00:31:43.747Z,14.05
2023-09-27T00:32:44.715Z,14.06
2023-09-27T00:33:45.630Z,14.05
2023-09-27T00:34:46.136Z,14.05
2023-09-27T00:35:47.041Z,14.02
2023-09-27T00:36:47.934Z,14.02
2023-09-27T00:37:48.899Z,14.02
2023-09-27T00:38:49.392Z,13.96
2023-09-27T00:39:50.275Z,13.98
2023-09-27T00:40:51.201Z,13.94
2023-09-27T00:41:52.037Z,13.91
2023-09-27T00:42:52.904Z,13.90
2023-09-27T00:43:53.815Z,13.87
2023-09-27T00:44:54.728Z,13.83
2023-09-27T00:45:55.584Z,13.83
2023-09-27T00:46:56.531Z,13.86
2023-09-27T00:47:57.435Z,13.79
2023-09-27T00:48:58.346Z,13.75
2023-09-27T00:49:59.240Z,13.76
2023-09-27T00:51:00.152Z,13.76
2023-09-27T00:52:00.993Z,13.75
2023-09-27T00:53:01.878Z,13.76
2023-09-27T00:54:02.733Z,13.79
2023-09-27T00:55:03.621Z,13.80
2023-09-27T00:56:05.726Z,13.75
2023-09-27T00:57:05.076Z,13.75
2023-09-27T00:58:05.952Z,13.83
2023-09-27T00:59:07.026Z,13.81
2023-09-27T01:00:07.418Z,13.79
2023-09-27T01:01:08.357Z,13.75
2023-09-27T01:02:09.278Z,13.69
2023-09-27T01:03:10.165Z,13.68
2023-09-27T01:04:11.054Z,13.71
2023-09-27T01:05:12.076Z,13.69
2023-09-27T01:06:12.579Z,13.69
2023-09-27T01:07:13.462Z,13.73
2023-09-27T01:08:14.525Z,13.69
2023-09-27T01:09:15.400Z,13.76
2023-09-27T01:10:16.270Z,13.79
2023-09-27T01:11:17.243Z,13.73
2023-09-27T01:12:18.080Z,13.73
2023-09-27T01:13:19.033Z,13.72
2023-09-27T01:14:19.965Z,13.75
2023-09-27T01:15:20.841Z,13.79
2023-09-27T01:16:21.768Z,13.83
2023-09-27T01:17:22.756Z,13.86
2023-09-27T01:18:23.644Z,13.80
2023-09-27T01:19:24.541Z,13.75
2023-09-27T01:20:25.455Z,13.73
2023-09-27T01:21:26.299Z,13.75
2023-09-27T01:22:27.176Z,13.76
2023-09-27T01:23:28.082Z,13.72
2023-09-27T01:24:28.932Z,13.72
2023-09-27T01:25:29.794Z,13.71
2023-09-27T01:26:30.692Z,13.72
2023-09-27T01:27:31.551Z,13.69
2023-09-27T01:28:32.456Z,13.72
2023-09-27T01:29:33.333Z,13.71
2023-09-27T01:30:34.282Z,13.71
2023-09-27T01:31:35.223Z,13.72
2023-09-27T01:32:36.173Z,13.76
2023-09-27T01:33:36.601Z,13.75
2023-09-27T01:34:37.522Z,13.73
2023-09-27T01:35:38.400Z,13.68
2023-09-27T01:36:39.303Z,13.75
2023-09-27T01:37:40.155Z,13.83
2023-09-27T01:38:41.024Z,13.81
2023-09-27T01:39:41.905Z,13.80
2023-09-27T01:40:42.811Z,13.72
2023-09-27T01:41:43.653Z,13.73
2023-09-27T01:42:44.646Z,13.69
2023-09-27T01:43:45.091Z,13.68
2023-09-27T01:44:45.961Z,13.63
2023-09-27T01:45:46.862Z,13.65
2023-09-27T01:46:47.716Z,13.69
2023-09-27T01:47:48.606Z,13.69
2023-09-27T01:48:49.568Z,13.65
2023-09-27T01:49:50.697Z,13.61
2023-09-27T01:50:51.124Z,13.55
2023-09-27T01:51:52.002Z,13.53
2023-09-27T01:52:52.890Z,13.47
2023-09-27T01:53:53.740Z,13.43
2023-09-27T01:54:54.610Z,13.41
2023-09-27T01:55:55.577Z,13.41
2023-09-27T01:56:56.444Z,13.43
2023-09-27T01:57:57.340Z,13.46
2023-09-27T01:58:58.236Z,13.46
2023-09-27T01:59:59.092Z,13.43
2023-09-27T02:01:00.041Z,13.46
2023-09-27T02:02:00.921Z,13.54
2023-09-27T02:03:01.965Z,13.53
2023-09-27T02:04:02.479Z,13.48
2023-09-27T02:05:03.488Z,13.48
2023-09-27T02:06:03.972Z,13.50
2023-09-27T02:07:04.967Z,13.46
2023-09-27T02:08:05.882Z,13.39
2023-09-27T02:09:06.724Z,13.32
2023-09-27T02:10:07.587Z,13.36
2023-09-27T02:11:08.487Z,13.38
2023-09-27T02:12:09.347Z,13.36
2023-09-27T02:13:10.223Z,13.32
2023-09-27T02:14:11.125Z,13.27
2023-09-27T02:15:12.009Z,13.21
2023-09-27T02:16:12.899Z,13.17
2023-09-27T02:17:13.864Z,13.17
2023-09-27T02:18:14.756Z,13.16
2023-09-27T02:19:15.596Z,13.19
2023-09-27T02:20:16.562Z,13.17
2023-09-27T02:21:17.406Z,13.25
2023-09-27T02:22:18.298Z,13.27
2023-09-27T02:23:19.183Z,13.24
2023-09-27T02:24:20.068Z,13.28
2023-09-27T02:25:20.955Z,13.31
2023-09-27T02:26:21.921Z,13.32
2023-09-27T02:27:22.780Z,13.35
2023-09-27T02:28:23.709Z,13.31
2023-09-27T02:29:24.587Z,13.31
2023-09-27T02:30:25.433Z,13.27
2023-09-27T02:31:26.333Z,13.25
2023-09-27T02:32:27.252Z,13.25
2023-09-27T02:33:28.107Z,13.19
2023-09-27T02:34:28.987Z,13.19
2023-09-27T02:35:29.674Z,13.17
2023-09-27T02:36:30.510Z,13.13
2023-09-27T02:37:31.394Z,13.13
2023-09-27T02:38:32.372Z,13.13
2023-09-27T02:39:32.750Z,13.12
2023-09-27T02:40:33.624Z,13.13
2023-09-27T02:41:34.496Z,13.13
2023-09-27T02:42:35.357Z,13.17
2023-09-27T02:43:36.233Z,13.13
2023-09-27T02:44:37.114Z,13.09
2023-09-27T02:45:38.062Z,13.04
2023-09-27T02:46:38.944Z,13.06
2023-09-27T02:47:39.880Z,13.06
2023-09-27T02:48:40.871Z,13.06
2023-09-27T02:49:41.712Z,13.06
2023-09-27T02:50:42.598Z,13.04
2023-09-27T02:51:43.486Z,12.99
2023-09-27T02:52:44.380Z,12.99
2023-09-27T02:53:45.263Z,13.03
2023-09-27T02:54:46.113Z,13.03
2023-09-27T02:55:46.990Z,13.03
2023-09-27T02:56:47.851Z,12.99
2023-09-27T02:57:48.950Z,12.99
2023-09-27T02:58:49.291Z,12.98
2023-09-27T02:59:50.156Z,12.98
2023-09-27T03:00:51.045Z,13.01
2023-09-27T03:01:51.930Z,13.06
2023-09-27T03:02:52.847Z,13.03
2023-09-27T03:03:53.749Z,13.03
2023-09-27T03:04:54.650Z,13.03
2023-09-27T03:05:55.524Z,13.04
2023-09-27T03:06:56.370Z,13.01
2023-09-27T03:07:57.339Z,12.99
2023-09-27T03:08:58.179Z,12.99
2023-09-27T03:09:59.050Z,12.96
2023-09-27T03:10:59.963Z,12.95
2023-09-27T03:12:00.800Z,12.98
2023-09-27T03:13:01.714Z,13.06
2023-09-27T03:14:02.641Z,13.06
2023-09-27T03:15:03.542Z,13.03
2023-09-27T03:16:04.468Z,12.96
2023-09-27T03:17:05.367Z,12.98
2023-09-27T03:18:06.338Z,12.96
2023-09-27T03:19:07.203Z,12.91
2023-09-27T03:20:08.105Z,12.94
2023-09-27T03:21:09.046Z,12.92
2023-09-27T03:22:09.892Z,12.88
2023-09-27T03:23:10.867Z,12.89
2023-09-27T03:24:11.725Z,12.88
2023-09-27T03:25:12.596Z,12.85
2023-09-27T03:26:13.541Z,12.85
2023-09-27T03:27:14.395Z,12.88
2023-09-27T03:28:15.282Z,12.91
2023-09-27T03:29:16.140Z,12.89
2023-09-27T03:30:17.008Z,12.95
2023-09-27T03:31:17.912Z,12.99
2023-09-27T03:32:18.796Z,13.01
2023-09-27T03:33:19.663Z,13.03
2023-09-27T03:34:20.539Z,12.98
2023-09-27T03:35:21.454Z,12.96
2023-09-27T03:36:22.329Z,12.91
2023-09-27T03:37:23.196Z,12.89
2023-09-27T03:38:24.086Z,12.84
2023-09-27T03:39:24.936Z,12.88
2023-09-27T03:40:25.807Z,12.88
2023-09-27T03:41:26.739Z,12.89
2023-09-27T03:42:27.590Z,12.91
2023-09-27T03:43:28.485Z,12.91
2023-09-27T03:44:29.345Z,12.89
2023-09-27T03:45:30.206Z,12.92
2023-09-27T03:46:31.145Z,12.88
2023-09-27T03:47:31.692Z,12.85
2023-09-27T03:48:32.093Z,12.88
2023-09-27T03:49:32.962Z,12.88
2023-09-27T03:50:33.903Z,12.85
2023-09-27T03:51:34.800Z,12.85
2023-09-27T03:52:35.627Z,12.80
2023-09-27T03:53:36.585Z,12.80
2023-09-27T03:54:37.005Z,12.80
2023-09-27T03:55:37.951Z,12.79
2023-09-27T03:56:38.876Z,12.77
2023-09-27T03:57:39.740Z,12.76
2023-09-27T03:58:40.632Z,12.73
2023-09-27T03:59:41.477Z,12.76
2023-09-27T04:00:42.367Z,12.76
2023-09-27T04:01:43.339Z,12.73
2023-09-27T04:02:44.282Z,12.71
2023-09-27T04:03:45.265Z,12.71
2023-09-27T04:04:46.130Z,12.74
2023-09-27T04:05:47.033Z,12.73
2023-09-27T04:06:47.947Z,12.74
2023-09-27T04:07:48.795Z,12.71
2023-09-27T04:08:49.677Z,12.66
2023-09-27T04:09:50.550Z,12.69
2023-09-27T04:10:51.412Z,12.76
2023-09-27T04:11:52.295Z,12.74
2023-09-27T04:12:53.164Z,12.70
2023-09-27T04:13:54.040Z,12.69
2023-09-27T04:14:54.920Z,12.69
2023-09-27T04:15:55.846Z,12.63
2023-09-27T04:16:56.715Z,12.58
2023-09-27T04:17:57.597Z,12.54
2023-09-27T04:18:58.477Z,12.54
2023-09-27T04:19:59.384Z,12.52
2023-09-27T04:21:00.268Z,12.49
2023-09-27T04:22:01.192Z,12.49
2023-09-27T04:23:02.109Z,12.52
2023-09-27T04:24:02.983Z,12.52
2023-09-27T04:25:03.860Z,12.49
2023-09-27T04:26:04.820Z,12.48
2023-09-27T04:27:05.678Z,12.48
2023-09-27T04:28:06.552Z,12.46
2023-09-27T04:29:08.571Z,12.44
2023-09-27T04:30:08.030Z,12.40
2023-09-27T04:31:08.958Z,12.41
2023-09-27T04:32:09.830Z,12.38
2023-09-27T04:33:10.737Z,12.36
2023-09-27T04:34:11.588Z,12.33
2023-09-27T04:35:12.480Z,12.33
2023-09-27T04:36:13.350Z,12.36
2023-09-27T04:37:14.255Z,12.31
2023-09-27T04:38:15.142Z,12.34
2023-09-27T04:39:15.981Z,12.37
2023-09-27T04:40:16.858Z,12.34
2023-09-27T04:41:17.769Z,12.33
2023-09-27T04:42:18.649Z,12.33
2023-09-27T04:43:19.533Z,12.26
2023-09-27T04:44:20.418Z,12.30
2023-09-27T04:45:21.298Z,12.36
2023-09-27T04:46:22.189Z,12.36
2023-09-27T04:47:23.072Z,12.38
2023-09-27T04:48:23.982Z,12.36
2023-09-27T04:49:24.838Z,12.40
2023-09-27T04:50:25.761Z,12.41
2023-09-27T04:51:26.702Z,12.43
2023-09-27T04:52:27.569Z,12.44
2023-09-27T04:53:28.446Z,12.46
2023-09-27T04:54:29.398Z,12.48
2023-09-27T04:55:30.272Z,12.54
2023-09-27T04:56:31.205Z,12.54
2023-09-27T04:57:32.087Z,12.52
2023-09-27T04:58:32.944Z,12.51
2023-09-27T04:59:33.814Z,12.49
2023-09-27T05:00:34.694Z,12.51
2023-09-27T05:01:35.605Z,12.52
2023-09-27T05:02:36.482Z,12.55
2023-09-27T05:03:37.418Z,12.54
2023-09-27T05:04:38.404Z,12.59
2023-09-27T05:05:39.297Z,12.61
2023-09-27T05:06:40.158Z,12.59
2023-09-27T05:07:41.208Z,12.61
2023-09-27T05:08:41.762Z,12.62
2023-09-27T05:09:42.670Z,12.62
2023-09-27T05:10:43.544Z,12.59
2023-09-27T05:11:44.455Z,12.55
2023-09-27T05:12:45.321Z,12.52
2023-09-27T05:13:46.181Z,12.55
2023-09-27T05:14:47.046Z,12.58
2023-09-27T05:15:47.990Z,12.59
2023-09-27T05:16:48.827Z,12.63
2023-09-27T05:17:49.876Z,12.62
2023-09-27T05:18:50.275Z,12.63
2023-09-27T05:19:51.127Z,12.70
2023-09-27T05:20:51.987Z,12.77
2023-09-27T05:21:52.856Z,12.79
2023-09-27T05:22:53.765Z,12.77
2023-09-27T05:23:54.607Z,12.74
2023-09-27T05:24:55.505Z,12.74
2023-09-27T05:25:56.352Z,12.76
2023-09-27T05:26:57.231Z,12.76
2023-09-27T05:27:58.201Z,12.74
2023-09-27T05:28:59.116Z,12.74
2023-09-27T05:29:59.962Z,12.74
2023-09-27T05:31:00.849Z,12.79
2023-09-27T05:32:01.744Z,12.85
2023-09-27T05:33:02.630Z,12.92
2023-09-27T05:34:03.518Z,12.99
2023-09-27T05:35:04.429Z,12.95
2023-09-27T05:36:05.259Z,12.89
2023-09-27T05:37:06.128Z,12.89
2023-09-27T05:38:06.706Z,12.87
2023-09-27T05:39:07.562Z,12.80
2023-09-27T05:40:08.435Z,12.85
2023-09-27T05:41:09.344Z,12.88
2023-09-27T05:42:10.177Z,12.88
2023-09-27T05:43:11.040Z,12.94
2023-09-27T05:44:11.992Z,12.94
2023-09-27T05:45:12.994Z,12.99
2023-09-27T05:46:13.525Z,12.95
2023-09-27T05:47:14.540Z,12.94
2023-09-27T05:48:15.006Z,12.95
2023-09-27T05:49:15.912Z,12.88
2023-09-27T05:50:16.858Z,12.87
2023-09-27T05:51:17.302Z,12.79
2023-09-27T05:52:18.205Z,12.84
2023-09-27T05:53:19.162Z,12.87
2023-09-27T05:54:20.048Z,12.84
2023-09-27T05:55:20.916Z,12.87
2023-09-27T05:56:21.815Z,12.91
2023-09-27T05:57:22.731Z,12.99
2023-09-27T05:58:24.468Z,13.06
2023-09-27T05:59:24.335Z,13.13
2023-09-27T06:00:25.221Z,13.28
2023-09-27T06:01:26.160Z,13.36
2023-09-27T06:02:27.221Z,13.43
2023-09-27T06:03:27.674Z,13.48
2023-09-27T06:04:28.804Z,13.53
2023-09-27T06:05:29.274Z,13.57
2023-09-27T06:06:30.125Z,13.65
2023-09-27T06:07:30.994Z,13.69
2023-09-27T06:08:31.924Z,13.72
2023-09-27T06:09:32.863Z,13.86
2023-09-27T06:10:33.741Z,13.94
2023-09-27T06:11:34.651Z,13.96
2023-09-27T06:12:35.488Z,13.94
2023-09-27T06:13:36.370Z,14.01
2023-09-27T06:14:37.267Z,14.09
2023-09-27T06:15:38.228Z,14.19
2023-09-27T06:16:39.174Z,14.13
2023-09-27T06:17:40.151Z,14.20
2023-09-27T06:18:40.831Z,14.24
2023-09-27T06:19:41.218Z,14.29
2023-09-27T06:20:42.146Z,14.35
2023-09-27T06:21:42.963Z,14.42
2023-09-27T06:22:43.831Z,14.46
2023-09-27T06:23:44.725Z,14.54
2023-09-27T06:24:45.591Z,14.64
2023-09-27T06:25:46.453Z,14.66
2023-09-27T06:26:47.331Z,14.66
2023-09-27T06:27:48.195Z,14.71
2023-09-27T06:28:49.051Z,14.80
2023-09-27T06:29:49.826Z,14.72
2023-09-27T06:30:50.764Z,14.86
2023-09-27T06:31:51.660Z,14.87
2023-09-27T06:32:52.653Z,14.93
2023-09-27T06:33:53.105Z,14.94
2023-09-27T06:34:53.952Z,15.00
2023-09-27T06:35:54.821Z,15.12
2023-09-27T06:36:55.695Z,15.11
2023-09-27T06:37:56.582Z,15.11
2023-09-27T06:38:57.479Z,15.16
2023-09-27T06:39:58.322Z,15.19
2023-09-27T06:40:59.189Z,15.25
2023-09-27T06:42:00.067Z,15.23
2023-09-27T06:43:00.980Z,15.22
2023-09-27T06:44:01.949Z,15.23
2023-09-27T06:45:02.813Z,15.25
2023-09-27T06:46:03.677Z,15.34
2023-09-27T06:47:04.604Z,15.46
2023-09-27T06:48:05.223Z,15.56
2023-09-27T06:49:05.752Z,15.66
2023-09-27T06:50:06.611Z,15.77
2023-09-27T06:51:07.469Z,15.86
2023-09-27T06:52:08.344Z,15.93
2023-09-27T06:53:22.338Z,15.93
2023-09-27T06:54:11.070Z,15.93
2023-09-27T06:55:10.913Z,16.03
2023-09-27T06:56:11.791Z,15.95
2023-09-27T06:57:12.649Z,15.84
2023-09-27T06:58:13.546Z,15.89
2023-09-27T06:59:14.432Z,15.91
2023-09-27T07:00:15.315Z,15.96
2023-09-27T07:01:16.274Z,15.88
2023-09-27T07:02:17.153Z,15.86
2023-09-27T07:03:18.093Z,15.93
2023-09-27T07:04:18.570Z,16.07
2023-09-27T07:05:19.466Z,16.22
2023-09-27T07:06:20.336Z,16.34
2023-09-27T07:07:21.242Z,16.54
2023-09-27T07:08:22.185Z,16.72
2023-09-27T07:09:23.071Z,16.82
2023-09-27T07:10:23.927Z,16.84
2023-09-27T07:11:24.830Z,16.84
2023-09-27T07:12:25.732Z,16.90
2023-09-27T07:13:26.257Z,17.02
2023-09-27T07:14:27.155Z,17.10
2023-09-27T07:15:28.028Z,17.18
2023-09-27T07:16:28.921Z,17.28
2023-09-27T07:17:29.944Z,17.35
2023-09-27T07:18:30.589Z,17.43
2023-09-27T07:19:31.268Z,17.47
2023-09-27T07:20:32.107Z,17.51
2023-09-27T07:21:33.056Z,17.60
2023-09-27T07:22:33.946Z,17.62
2023-09-27T07:23:34.841Z,17.40
2023-09-27T07:24:35.721Z,17.42
2023-09-27T07:25:36.600Z,17.42
2023-09-27T07:26:37.487Z,17.27
2023-09-27T07:27:38.339Z,17.22
2023-09-27T07:28:39.217Z,17.20
2023-09-27T07:29:40.124Z,17.24
2023-09-27T07:30:41.026Z,17.25
2023-09-27T07:31:41.876Z,17.25
2023-09-27T07:32:42.833Z,17.22
2023-09-27T07:33:45.803Z,17.30
2023-09-27T07:34:43.977Z,17.36
2023-09-27T07:35:44.881Z,17.35
2023-09-27T07:36:45.515Z,17.43
2023-09-27T07:37:46.398Z,17.55
2023-09-27T07:38:47.363Z,17.53
2023-09-27T07:39:48.244Z,17.40
2023-09-27T07:40:49.088Z,17.39
2023-09-27T07:41:49.955Z,17.21
2023-09-27T07:42:50.845Z,17.27
2023-09-27T07:43:52.047Z,17.35
2023-09-27T07:44:52.652Z,17.45
2023-09-27T07:45:53.516Z,17.49
2023-09-27T07:46:54.397Z,17.65
2023-09-27T07:47:55.437Z,17.79
2023-09-27T07:48:55.869Z,17.94
2023-09-27T07:49:56.727Z,18.17
2023-09-27T07:50:57.615Z,18.29
2023-09-27T07:51:58.484Z,18.44
2023-09-27T07:52:59.362Z,18.51
2023-09-27T07:54:00.258Z,18.65
2023-09-27T07:55:01.145Z,18.51
2023-09-27T07:56:02.093Z,18.38
2023-09-27T07:57:02.502Z,18.36
2023-09-27T07:58:03.366Z,18.44
2023-09-27T07:59:04.246Z,18.39
2023-09-27T08:00:05.145Z,18.44
2023-09-27T08:01:06.112Z,18.44
2023-09-27T08:02:07.021Z,18.50
2023-09-27T08:03:08.014Z,18.32
2023-09-27T08:04:11.331Z,18.34
2023-09-27T08:05:09.762Z,18.32
2023-09-27T08:06:10.300Z,18.38
2023-09-27T08:07:11.364Z,18.46
2023-09-27T08:08:11.765Z,18.42
2023-09-27T08:09:20.148Z,18.38
2023-09-27T08:11:14.358Z,18.54
2023-09-27T08:12:14.744Z,18.86
2023-09-27T08:13:15.618Z,19.05
2023-09-27T08:14:16.501Z,19.07
2023-09-27T08:15:17.399Z,19.13
2023-09-27T08:16:18.310Z,19.38
2023-09-27T08:17:19.200Z,19.58
2023-09-27T08:18:20.240Z,19.65
2023-09-27T08:19:20.604Z,19.67
2023-09-27T08:20:21.493Z,19.76
2023-09-27T08:21:22.359Z,19.82
2023-09-27T08:22:23.221Z,19.89
2023-09-27T08:23:24.091Z,19.92
2023-09-27T08:24:25.002Z,19.90
2023-09-27T08:25:25.879Z,19.95
2023-09-27T08:26:26.774Z,19.98
2023-09-27T08:27:27.640Z,19.94
2023-09-27T08:28:28.477Z,19.86
2023-09-27T08:29:29.357Z,19.68
2023-09-27T08:30:30.234Z,19.58
2023-09-27T08:31:31.116Z,19.70
2023-09-27T08:32:32.092Z,19.85
2023-09-27T08:33:32.572Z,20.23
2023-09-27T08:34:33.395Z,20.56
2023-09-27T08:35:34.302Z,20.61
2023-09-27T08:36:35.284Z,20.78
2023-09-27T08:37:36.140Z,21.43
2023-09-27T08:38:37.325Z,22.11
2023-09-27T08:39:37.808Z,22.78
2023-09-27T08:40:38.717Z,23.50
2023-09-27T08:41:39.683Z,24.49
2023-09-27T08:42:40.525Z,25.64
2023-09-27T08:43:41.406Z,26.42
2023-09-27T08:44:42.328Z,27.13
2023-09-27T08:45:43.188Z,27.78
2023-09-27T08:46:44.088Z,28.55
2023-09-27T08:47:45.091Z,28.48
2023-09-27T08:48:45.506Z,26.94
2023-09-27T08:49:46.372Z,25.74
2023-09-27T08:50:47.278Z,25.23
2023-09-27T08:51:48.131Z,25.30
2023-09-27T08:52:48.985Z,25.75
2023-09-27T08:53:49.942Z,25.96
2023-09-27T08:54:50.815Z,26.00
2023-09-27T08:55:54.473Z,25.26
2023-09-27T08:56:52.538Z,23.94
2023-09-27T08:57:53.425Z,22.97
2023-09-27T08:58:54.522Z,22.51
2023-09-27T08:59:55.090Z,22.09
2023-09-27T09:00:55.570Z,22.78
2023-09-27T09:01:56.452Z,23.99
2023-09-27T09:02:57.416Z,24.12
2023-09-27T09:03:57.944Z,23.93
2023-09-27T09:04:58.405Z,24.94
2023-09-27T09:05:58.953Z,26.42
2023-09-27T09:06:59.852Z,26.96
2023-09-27T09:08:00.773Z,27.72
2023-09-27T09:09:01.722Z,28.06
2023-09-27T09:10:02.555Z,27.90
2023-09-27T09:11:03.473Z,26.44
2023-09-27T09:12:04.325Z,25.59
2023-09-27T09:13:05.180Z,25.26
2023-09-27T09:14:06.625Z,24.70
2023-09-27T09:15:06.745Z,24.52
2023-09-27T09:16:07.648Z,24.48
2023-09-27T09:17:08.571Z,25.02
2023-09-27T09:18:09.474Z,26.23
2023-09-27T09:19:10.327Z,27.66
2023-09-27T09:20:11.244Z,28.14
2023-09-27T09:21:12.103Z,28.06
2023-09-27T09:22:13.075Z,27.90
2023-09-27T09:23:14.149Z,28.06
2023-09-27T09:24:14.510Z,28.01
2023-09-27T09:25:15.402Z,27.90
2023-09-27T09:26:16.310Z,27.55
2023-09-27T09:27:18.312Z,27.39
2023-09-27T09:28:17.978Z,27.31
2023-09-27T09:29:18.922Z,27.77
2023-09-27T09:30:19.808Z,27.86
2023-09-27T09:31:20.677Z,27.78
2023-09-27T09:32:21.655Z,28.09
2023-09-27T09:33:22.164Z,28.61
2023-09-27T09:34:23.010Z,28.79
2023-09-27T09:35:23.895Z,29.11
2023-09-27T09:36:24.771Z,30.07
2023-09-27T09:37:25.637Z,30.68
2023-09-27T09:38:26.618Z,31.49
2023-09-27T09:39:27.511Z,32.10
2023-09-27T09:40:28.356Z,32.61
2023-09-27T09:41:29.336Z,32.83
2023-09-27T09:42:30.199Z,32.46
2023-09-27T09:43:31.094Z,30.22
2023-09-27T09:44:31.967Z,28.43
2023-09-27T09:45:32.835Z,27.18
2023-09-27T09:46:33.771Z,27.24
2023-09-27T09:47:34.722Z,26.69
2023-09-27T09:48:35.688Z,25.72
2023-09-27T09:49:36.568Z,24.93
2023-09-27T09:50:37.467Z,24.86
2023-09-27T09:51:38.305Z,25.29
2023-09-27T09:52:39.178Z,25.01
2023-09-27T09:53:40.365Z,25.02
2023-09-27T09:54:40.967Z,24.82
2023-09-27T09:56:52.936Z,25.41
2023-09-27T09:57:52.372Z,25.82
2023-09-27T09:58:45.172Z,25.39
2023-09-27T09:59:45.098Z,25.04
2023-09-27T10:00:45.943Z,25.23
2023-09-27T10:01:46.901Z,26.23
2023-09-27T10:02:47.835Z,27.25
2023-09-27T10:03:48.415Z,27.83
2023-09-27T10:04:49.307Z,28.30
2023-09-27T10:05:50.205Z,28.79
2023-09-27T10:06:51.098Z,29.63
2023-09-27T10:07:51.927Z,29.11
2023-09-27T10:08:52.937Z,29.39
2023-09-27T10:09:53.429Z,30.07
2023-09-27T10:10:54.369Z,31.20
2023-09-27T10:11:55.287Z,31.71
2023-09-27T10:12:56.123Z,30.76
2023-09-27T10:13:57.020Z,29.62
2023-09-27T10:14:57.888Z,28.72
2023-09-27T10:15:58.848Z,28.70
2023-09-27T10:16:59.677Z,29.37
2023-09-27T10:18:00.705Z,30.00
2023-09-27T10:19:01.100Z,28.83
2023-09-27T10:20:01.755Z,27.52
2023-09-27T10:21:02.678Z,26.88
2023-09-27T10:22:03.523Z,26.64
2023-09-27T10:23:04.406Z,27.31
2023-09-27T10:24:05.350Z,28.43
2023-09-27T10:25:06.223Z,29.79
2023-09-27T10:26:07.139Z,30.57
2023-09-27T10:27:08.014Z,30.42
2023-09-27T10:28:08.865Z,29.70
2023-09-27T10:29:09.784Z,29.33
2023-09-27T10:30:10.655Z,29.20
2023-09-27T10:31:11.580Z,29.58
2023-09-27T10:32:12.441Z,30.54
2023-09-27T10:33:13.355Z,30.97
2023-09-27T10:34:14.223Z,31.10
2023-09-27T10:35:15.147Z,30.91
2023-09-27T10:36:16.052Z,31.04
2023-09-27T10:37:19.623Z,31.31
2023-09-27T10:38:17.837Z,31.49
2023-09-27T10:39:18.754Z,30.57
2023-09-27T10:40:19.675Z,29.88
2023-09-27T10:41:20.571Z,29.81
2023-09-27T10:42:21.559Z,30.68
2023-09-27T10:43:22.444Z,29.91
2023-09-27T10:44:23.292Z,29.00
2023-09-27T10:45:24.207Z,29.45
2023-09-27T10:46:25.185Z,30.36
2023-09-27T10:47:26.130Z,30.88
2023-09-27T10:48:26.580Z,31.41
2023-09-27T10:49:27.431Z,32.06
2023-09-27T10:50:28.346Z,33.07
2023-09-27T10:51:29.211Z,34.03
2023-09-27T10:52:30.218Z,34.60
2023-09-27T10:53:31.103Z,35.36
2023-09-27T10:54:32.852Z,35.31
2023-09-27T10:55:32.719Z,35.64
2023-09-27T10:56:33.700Z,35.39
2023-09-27T10:57:34.704Z,35.65
2023-09-27T10:58:35.040Z,35.99
2023-09-27T10:59:35.991Z,35.09
2023-09-27T11:00:36.842Z,35.54
2023-09-27T11:01:37.774Z,35.31
2023-09-27T11:02:38.645Z,34.75
2023-09-27T11:03:39.628Z,32.10
2023-09-27T11:04:40.579Z,30.56
2023-09-27T11:05:41.062Z,29.76
2023-09-27T11:06:41.928Z,29.92
2023-09-27T11:07:42.825Z,31.05
2023-09-27T11:08:52.219Z,32.17
2023-09-27T11:09:44.437Z,32.99
2023-09-27T11:10:45.287Z,34.11
2023-09-27T11:11:46.265Z,34.94
2023-09-27T11:12:46.687Z,35.25
2023-09-27T11:13:47.537Z,33.72
2023-09-27T11:14:48.792Z,32.85
2023-09-27T11:15:49.212Z,31.23
2023-09-27T11:16:50.119Z,30.82
2023-09-27T11:17:51.134Z,30.94
2023-09-27T11:18:51.618Z,31.76
2023-09-27T11:19:52.487Z,32.66
2023-09-27T11:20:53.408Z,33.37
2023-09-27T11:21:54.293Z,34.03
2023-09-27T11:22:55.171Z,34.60
2023-09-27T11:23:56.090Z,35.05
2023-09-27T11:24:56.950Z,35.65
2023-09-27T11:25:57.819Z,35.96
2023-09-27T11:26:58.691Z,34.84
2023-09-27T11:27:59.600Z,35.21
2023-09-27T11:29:00.449Z,35.66
2023-09-27T11:30:01.333Z,35.91
2023-09-27T11:31:02.254Z,35.96
2023-09-27T11:32:03.095Z,35.39
2023-09-27T11:33:04.064Z,35.27
2023-09-27T11:34:04.931Z,35.87
2023-09-27T11:35:05.833Z,35.15
2023-09-27T11:36:06.745Z,34.26
2023-09-27T11:37:07.610Z,31.65
2023-09-27T11:38:08.684Z,29.85
2023-09-27T11:39:09.194Z,28.25
2023-09-27T11:40:10.081Z,27.87
2023-09-27T11:41:10.991Z,29.03
2023-09-27T11:42:11.856Z,29.21
2023-09-27T11:43:12.756Z,29.47
2023-09-27T11:44:13.657Z,30.01
2023-09-27T11:45:14.543Z,30.04
2023-09-27T11:46:15.428Z,28.92
2023-09-27T11:47:16.313Z,28.06
2023-09-27T11:48:17.287Z,27.02
2023-09-27T11:49:17.684Z,26.03
2023-09-27T11:50:18.597Z,26.09
2023-09-27T11:51:19.524Z,27.12
2023-09-27T11:52:20.393Z,27.99
2023-09-27T11:53:21.317Z,28.40
2023-09-27T11:54:22.136Z,28.92
2023-09-27T11:55:23.025Z,28.89
2023-09-27T11:56:23.930Z,29.69
2023-09-27T11:57:24.777Z,29.45
2023-09-27T11:58:25.730Z,28.05
2023-09-27T11:59:26.585Z,27.86
2023-09-27T12:00:27.476Z,27.91
2023-09-27T12:01:28.335Z,27.48
2023-09-27T12:02:32.937Z,26.83
2023-09-27T12:03:30.766Z,26.42
2023-09-27T12:04:30.462Z,26.75
2023-09-27T12:05:31.397Z,26.81
2023-09-27T12:06:31.655Z,26.51
2023-09-27T12:07:32.533Z,26.69
2023-09-27T12:08:33.078Z,27.23
2023-09-27T12:09:33.934Z,27.59
2023-09-27T12:10:34.810Z,27.71
2023-09-27T12:11:35.724Z,27.84
2023-09-27T12:12:36.574Z,27.86
2023-09-27T12:13:37.482Z,27.90
2023-09-27T12:14:38.440Z,28.05
2023-09-27T12:15:39.312Z,27.31
2023-09-27T12:16:40.216Z,26.84
2023-09-27T12:17:41.126Z,26.73
2023-09-27T12:18:42.105Z,26.66
2023-09-27T12:19:42.929Z,26.41
2023-09-27T12:20:45.838Z,25.94
2023-09-27T12:21:44.736Z,25.81
2023-09-27T12:22:45.607Z,25.53
2023-09-27T12:23:46.528Z,25.20
2023-09-27T12:24:47.399Z,24.87
2023-09-27T12:25:48.302Z,24.83
2023-09-27T12:26:49.210Z,25.07
2023-09-27T12:27:50.039Z,25.35
2023-09-27T12:28:50.937Z,25.74
2023-09-27T12:29:51.841Z,26.01
2023-09-27T12:30:52.716Z,25.98
2023-09-27T12:31:53.608Z,26.16
2023-09-27T12:32:54.588Z,26.32
2023-09-27T12:33:55.224Z,26.59
2023-09-27T12:34:55.927Z,26.53
2023-09-27T12:35:56.826Z,26.36
2023-09-27T12:36:57.762Z,26.28
2023-09-27T12:37:58.592Z,25.96
2023-09-27T12:38:59.465Z,26.04
2023-09-27T12:40:00.353Z,26.23
2023-09-27T12:41:01.222Z,26.54
2023-09-27T12:42:02.079Z,26.68
2023-09-27T12:43:03.015Z,26.49
2023-09-27T12:44:03.895Z,26.97
2023-09-27T12:45:04.824Z,27.31
2023-09-27T12:46:05.790Z,27.72
2023-09-27T12:47:06.629Z,27.49
2023-09-27T12:48:07.603Z,27.28
2023-09-27T12:49:08.009Z,27.27
2023-09-27T12:50:09.066Z,26.84
2023-09-27T12:51:09.406Z,26.27
2023-09-27T12:52:10.270Z,26.03
2023-09-27T12:53:11.357Z,25.85
2023-09-27T12:54:11.814Z,25.81
2023-09-27T12:55:12.851Z,26.00
2023-09-27T12:56:14.999Z,26.06
2023-09-27T12:57:14.317Z,25.46
2023-09-27T12:58:15.206Z,24.98
2023-09-27T12:59:16.137Z,25.08
2023-09-27T13:00:17.047Z,25.02
2023-09-27T13:01:17.938Z,24.64
2023-09-27T13:02:18.830Z,24.44
2023-09-27T13:03:19.851Z,24.55
2023-09-27T13:04:20.334Z,24.61
2023-09-27T13:05:21.253Z,24.66